createdAt,value
2022-07-28T00:00:02.982Z,18.00
2022-07-28T00:02:29.830Z,17.70
2022-07-28T00:04:56.880Z,17.50
2022-07-28T00:07:23.737Z,17.50
2022-07-28T00:09:50.747Z,17.50
2022-07-28T00:12:17.413Z,17.50
2022-07-28T00:14:44.537Z,17.60
2022-07-28T00:17:11.531Z,17.50
2022-07-28T00:19:38.278Z,17.50
2022-07-28T00:22:06.314Z,17.60
2022-07-28T00:24:33.312Z,17.60
2022-07-28T00:27:00.237Z,17.50
2022-07-28T00:29:49.778Z,17.60
2022-07-28T00:32:14.056Z,17.40
2022-07-28T00:34:41.178Z,17.40
2022-07-28T00:37:09.283Z,17.40
2022-07-28T00:39:41.187Z,17.40
2022-07-28T00:42:08.071Z,17.30
2022-07-28T00:44:34.826Z,17.30
2022-07-28T00:47:01.622Z,17.30
2022-07-28T00:49:28.330Z,17.30
2022-07-28T00:51:55.051Z,17.30
2022-07-28T00:54:21.750Z,17.30
2022-07-28T00:56:48.452Z,17.30
2022-07-28T00:59:15.084Z,17.40
2022-07-28T01:01:42.056Z,17.40
2022-07-28T01:04:08.984Z,17.40
2022-07-28T01:07:17.413Z,17.40
2022-07-28T01:10:19.898Z,17.40
2022-07-28T01:12:55.512Z,17.30
2022-07-28T01:15:40.583Z,17.30
2022-07-28T01:18:17.567Z,17.30
2022-07-28T01:20:59.058Z,17.30
2022-07-28T01:23:34.469Z,17.20
2022-07-28T01:26:33.822Z,17.40
2022-07-28T01:29:14.366Z,17.10
2022-07-28T01:31:48.440Z,17.20
2022-07-28T01:34:23.373Z,17.10
2022-07-28T01:37:07.996Z,17.10
2022-07-28T01:39:37.591Z,17.10
2022-07-28T01:44:55.761Z,16.70
2022-07-28T01:47:27.761Z,17.20
2022-07-28T01:50:02.129Z,17.10
2022-07-28T01:52:30.382Z,17.20
2022-07-28T01:55:01.517Z,17.60
2022-07-28T01:57:31.567Z,17.20
2022-07-28T02:00:12.467Z,17.60
2022-07-28T02:02:49.813Z,17.10
2022-07-28T02:05:21.740Z,17.20
2022-07-28T02:07:50.434Z,17.10
2022-07-28T02:10:18.444Z,17.00
2022-07-28T02:12:48.061Z,17.00
2022-07-28T02:15:15.758Z,17.00
2022-07-28T02:17:45.810Z,17.00
2022-07-28T02:20:14.770Z,17.00
2022-07-28T02:22:42.620Z,17.00
2022-07-28T02:25:10.149Z,17.00
2022-07-28T02:27:40.511Z,17.00
2022-07-28T02:30:15.479Z,17.00
2022-07-28T02:32:52.333Z,17.00
2022-07-28T02:35:37.885Z,16.90
2022-07-28T02:38:12.662Z,16.90
2022-07-28T02:40:42.840Z,16.90
2022-07-28T02:43:14.236Z,17.00
2022-07-28T02:45:44.205Z,16.80
2022-07-28T02:48:18.961Z,16.90
2022-07-28T02:50:46.894Z,16.70
2022-07-28T02:53:16.388Z,16.70
2022-07-28T02:55:46.650Z,16.70
2022-07-28T02:58:15.617Z,16.60
2022-07-28T03:00:42.864Z,16.50
2022-07-28T03:03:11.360Z,16.50
2022-07-28T03:05:41.208Z,16.50
2022-07-28T03:08:08.578Z,16.40
2022-07-28T03:10:36.540Z,16.40
2022-07-28T03:13:06.682Z,16.40
2022-07-28T03:15:37.316Z,16.40
2022-07-28T03:18:05.313Z,16.30
2022-07-28T03:20:32.806Z,16.30
2022-07-28T03:23:00.241Z,16.20
2022-07-28T03:25:43.695Z,16.20
2022-07-28T03:28:15.078Z,16.20
2022-07-28T03:30:45.217Z,16.10
2022-07-28T03:33:12.407Z,16.10
2022-07-28T03:35:44.646Z,16.10
2022-07-28T03:38:20.948Z,16.10
2022-07-28T03:40:49.057Z,16.20
2022-07-28T03:43:21.061Z,16.00
2022-07-28T03:45:47.954Z,16.00
2022-07-28T03:48:15.511Z,16.00
2022-07-28T03:50:42.752Z,16.50
2022-07-28T03:53:18.146Z,15.90
2022-07-28T03:55:50.533Z,15.90
2022-07-28T03:58:19.154Z,16.00
2022-07-28T04:00:46.240Z,15.80
2022-07-28T04:03:35.330Z,15.80
2022-07-28T04:06:02.000Z,15.80
2022-07-28T04:08:28.723Z,16.40
2022-07-28T04:10:55.590Z,15.70
2022-07-28T04:13:22.296Z,15.70
2022-07-28T04:15:49.090Z,15.70
2022-07-28T04:18:15.886Z,15.70
2022-07-28T04:20:42.575Z,15.80
2022-07-28T04:23:09.474Z,15.70
2022-07-28T04:25:36.344Z,15.70
2022-07-28T04:28:07.278Z,15.80
2022-07-28T04:30:34.173Z,16.00
2022-07-28T04:33:00.925Z,15.40
2022-07-28T04:35:28.383Z,16.00
2022-07-28T04:37:58.379Z,15.80
2022-07-28T04:40:26.775Z,15.90
2022-07-28T04:42:54.403Z,15.90
2022-07-28T04:45:21.491Z,16.00
2022-07-28T04:47:48.271Z,16.10
2022-07-28T04:50:22.533Z,16.20
2022-07-28T04:52:50.065Z,16.30
2022-07-28T04:55:18.259Z,16.30
2022-07-28T04:57:45.665Z,16.50
2022-07-28T05:00:14.314Z,16.50
2022-07-28T05:02:42.999Z,16.60
2022-07-28T05:05:10.417Z,16.70
2022-07-28T05:07:38.315Z,16.70
2022-07-28T05:10:07.097Z,16.80
2022-07-28T05:12:33.840Z,17.00
2022-07-28T05:15:00.931Z,17.00
2022-07-28T05:17:27.900Z,17.10
2022-07-28T05:19:54.645Z,17.20
2022-07-28T05:22:49.684Z,17.30
2022-07-28T05:25:53.528Z,17.00
2022-07-28T05:28:18.931Z,17.30
2022-07-28T05:30:53.029Z,17.30
2022-07-28T05:33:19.765Z,17.40
2022-07-28T05:35:52.546Z,17.40
2022-07-28T05:38:19.533Z,17.30
2022-07-28T05:40:48.154Z,17.30
2022-07-28T05:43:14.997Z,17.30
2022-07-28T05:45:41.840Z,17.30
2022-07-28T05:48:08.678Z,17.30
2022-07-28T05:50:35.463Z,17.30
2022-07-28T05:53:02.386Z,17.30
2022-07-28T05:55:29.164Z,17.40
2022-07-28T05:57:55.852Z,17.40
2022-07-28T06:00:23.480Z,17.90
2022-07-28T06:02:51.085Z,17.70
2022-07-28T06:05:22.522Z,17.80
2022-07-28T06:07:51.971Z,18.10
2022-07-28T06:10:22.847Z,18.20
2022-07-28T06:13:08.390Z,18.40
2022-07-28T06:19:56.326Z,18.90
2022-07-28T06:22:37.752Z,19.20
2022-07-28T06:28:17.031Z,19.70
2022-07-28T06:31:01.896Z,19.90
2022-07-28T06:36:21.322Z,20.20
2022-07-28T06:38:50.563Z,20.30
2022-07-28T06:44:18.827Z,20.40
2022-07-28T06:46:50.685Z,20.60
2022-07-28T06:49:40.809Z,20.70
2022-07-28T06:52:11.901Z,20.80
2022-07-28T06:54:48.702Z,21.00
2022-07-28T06:57:33.589Z,21.30
2022-07-28T07:00:16.828Z,21.50
2022-07-28T07:02:50.546Z,21.70
2022-07-28T07:05:32.949Z,21.90
2022-07-28T07:08:04.185Z,22.00
2022-07-28T07:11:20.423Z,22.20
2022-07-28T07:13:42.091Z,22.30
2022-07-28T07:16:10.246Z,22.30
2022-07-28T07:18:55.304Z,22.40
2022-07-28T07:21:27.170Z,22.40
2022-07-28T07:24:07.469Z,22.50
2022-07-28T07:26:38.355Z,22.60
2022-07-28T07:29:11.320Z,22.70
2022-07-28T07:31:53.025Z,22.90
2022-07-28T07:34:26.764Z,23.10
2022-07-28T07:37:00.961Z,23.30
2022-07-28T07:39:31.387Z,23.50
2022-07-28T07:42:40.342Z,23.70
2022-07-28T07:45:18.240Z,24.00
2022-07-28T07:47:51.763Z,24.40
2022-07-28T07:54:07.824Z,24.90
2022-07-28T07:56:40.424Z,25.30
2022-07-28T07:59:36.765Z,25.70
2022-07-28T08:04:51.078Z,26.40
2022-07-28T08:07:18.065Z,27.10
2022-07-28T08:09:48.980Z,27.00
2022-07-28T08:12:15.657Z,27.20
2022-07-28T08:14:42.438Z,27.40
2022-07-28T08:17:14.735Z,27.60
2022-07-28T08:19:41.633Z,27.40
2022-07-28T08:22:08.549Z,27.70
2022-07-28T08:24:35.511Z,28.10
2022-07-28T08:27:03.477Z,27.90
2022-07-28T08:29:30.477Z,28.10
2022-07-28T08:31:57.778Z,28.40
2022-07-28T08:34:28.515Z,28.40
2022-07-28T08:37:01.972Z,28.50
2022-07-28T08:39:29.272Z,28.90
2022-07-28T08:41:56.106Z,28.40
2022-07-28T08:44:30.771Z,28.80
2022-07-28T08:46:58.904Z,28.80
2022-07-28T08:49:26.767Z,28.90
2022-07-28T08:51:56.179Z,29.00
2022-07-28T08:54:28.027Z,29.20
2022-07-28T08:56:55.792Z,29.60
2022-07-28T08:59:23.788Z,29.50
2022-07-28T09:01:57.270Z,29.70
2022-07-28T09:04:25.998Z,29.70
2022-07-28T09:06:53.266Z,30.10
2022-07-28T09:09:21.642Z,29.90
2022-07-28T09:11:48.448Z,29.90
2022-07-28T09:14:15.833Z,30.00
2022-07-28T09:16:42.878Z,29.90
2022-07-28T09:19:09.706Z,29.90
2022-07-28T09:21:36.830Z,29.90
2022-07-28T09:24:03.876Z,29.90
2022-07-28T09:26:30.572Z,29.60
2022-07-28T09:28:58.994Z,29.70
2022-07-28T09:31:27.979Z,29.60
2022-07-28T09:33:57.609Z,29.50
2022-07-28T09:36:24.860Z,29.70
2022-07-28T09:38:51.873Z,29.30
2022-07-28T09:41:21.672Z,29.20
2022-07-28T09:43:54.437Z,29.10
2022-07-28T09:46:25.111Z,29.20
2022-07-28T09:48:59.916Z,29.40
2022-07-28T09:51:31.982Z,29.50
2022-07-28T09:54:08.650Z,29.60
2022-07-28T09:56:35.765Z,29.70
2022-07-28T09:59:03.743Z,29.80
2022-07-28T10:01:37.073Z,30.00
2022-07-28T10:04:04.416Z,30.00
2022-07-28T10:06:33.239Z,30.00
2022-07-28T10:09:07.751Z,30.00
2022-07-28T10:11:40.935Z,29.80
2022-07-28T10:14:08.545Z,29.90
2022-07-28T10:16:42.550Z,29.80
2022-07-28T10:19:09.549Z,29.80
2022-07-28T10:21:42.407Z,29.80
2022-07-28T10:24:14.287Z,29.90
2022-07-28T10:26:44.932Z,29.90
2022-07-28T10:29:20.888Z,29.90
2022-07-28T10:32:05.285Z,29.90
2022-07-28T10:34:43.640Z,29.70
2022-07-28T10:37:24.203Z,29.70
2022-07-28T10:40:18.404Z,29.80
2022-07-28T10:42:45.482Z,29.80
2022-07-28T10:45:13.628Z,29.90
2022-07-28T10:47:40.447Z,30.10
2022-07-28T10:50:08.584Z,30.30
2022-07-28T10:52:47.148Z,30.40
2022-07-28T10:55:40.902Z,30.40
2022-07-28T10:58:25.231Z,30.50
2022-07-28T11:00:58.213Z,30.60
2022-07-28T11:03:44.496Z,30.70
2022-07-28T11:06:31.165Z,30.70
2022-07-28T11:09:15.496Z,30.70
2022-07-28T11:11:51.953Z,30.70
2022-07-28T11:14:24.819Z,30.80
2022-07-28T11:17:00.816Z,30.70
2022-07-28T11:20:00.885Z,30.70
2022-07-28T11:22:37.797Z,30.50
2022-07-28T11:25:20.833Z,30.80
2022-07-28T11:27:54.230Z,30.30
2022-07-28T11:30:32.981Z,30.30
2022-07-28T11:33:00.733Z,30.20
2022-07-28T11:35:32.214Z,30.00
2022-07-28T11:38:01.953Z,29.90
2022-07-28T11:40:40.394Z,29.70
2022-07-28T11:43:37.775Z,29.60
2022-07-28T11:46:10.450Z,29.50
2022-07-28T11:48:44.856Z,29.50
2022-07-28T11:51:13.426Z,29.40
2022-07-28T11:53:43.208Z,29.60
2022-07-28T11:56:24.731Z,29.30
2022-07-28T11:59:03.141Z,29.30
2022-07-28T12:01:31.995Z,29.20
2022-07-28T12:03:59.994Z,29.20
2022-07-28T12:06:38.382Z,29.10
2022-07-28T12:09:07.496Z,29.00
2022-07-28T12:11:38.801Z,29.00
2022-07-28T12:14:08.442Z,28.90
2022-07-28T12:16:38.718Z,28.70
2022-07-28T12:19:08.366Z,28.90
2022-07-28T12:21:49.330Z,28.90
2022-07-28T12:24:26.156Z,28.90
2022-07-28T12:26:53.010Z,29.00
2022-07-28T12:29:20.751Z,29.10
2022-07-28T12:32:02.611Z,29.10
2022-07-28T12:34:31.591Z,29.10
2022-07-28T12:37:02.200Z,29.10
2022-07-28T12:39:30.940Z,29.10
2022-07-28T12:42:06.718Z,28.50
2022-07-28T12:44:44.261Z,29.10
2022-07-28T12:47:12.818Z,28.90
2022-07-28T12:49:41.343Z,28.60
2022-07-28T12:52:16.297Z,28.70
2022-07-28T12:54:43.096Z,28.60
2022-07-28T12:57:43.256Z,28.60
2022-07-28T13:00:15.407Z,28.40
2022-07-28T13:02:42.185Z,28.30
2022-07-28T13:05:10.984Z,28.20
2022-07-28T13:07:40.620Z,28.40
2022-07-28T13:10:12.288Z,28.00
2022-07-28T13:12:39.498Z,27.80
2022-07-28T13:15:16.139Z,27.90
2022-07-28T13:17:51.791Z,27.80
2022-07-28T13:20:19.344Z,27.80
2022-07-28T13:22:46.762Z,27.80
2022-07-28T13:25:14.606Z,27.80
2022-07-28T13:27:41.826Z,27.70
2022-07-28T13:30:10.382Z,27.70
2022-07-28T13:32:40.260Z,27.70
2022-07-28T13:35:15.157Z,27.80
2022-07-28T13:37:42.560Z,27.80
2022-07-28T13:40:09.730Z,27.80
2022-07-28T13:42:36.444Z,27.90
2022-07-28T13:45:05.046Z,27.80
2022-07-28T13:47:35.648Z,27.90
2022-07-28T13:50:07.293Z,27.90
2022-07-28T13:52:37.475Z,27.90
2022-07-28T13:55:06.149Z,28.10
2022-07-28T13:57:35.824Z,27.90
2022-07-28T14:00:07.687Z,27.90
2022-07-28T14:02:35.406Z,27.90
2022-07-28T14:05:02.688Z,27.90
2022-07-28T14:07:31.947Z,27.90
2022-07-28T14:09:59.059Z,28.30
2022-07-28T14:12:26.366Z,27.90
2022-07-28T14:14:53.109Z,27.90
2022-07-28T14:20:10.412Z,28.00
2022-07-28T14:22:37.258Z,28.00
2022-07-28T14:25:04.403Z,28.00
2022-07-28T14:27:31.422Z,28.00
2022-07-28T14:29:58.587Z,28.00
2022-07-28T14:32:25.340Z,27.80
2022-07-28T14:34:53.437Z,28.00
2022-07-28T14:37:21.409Z,28.30
2022-07-28T14:39:48.164Z,28.10
2022-07-28T14:42:14.952Z,28.10
2022-07-28T14:44:41.769Z,28.00
2022-07-28T14:47:08.731Z,28.20
2022-07-28T14:49:36.083Z,28.10
2022-07-28T14:52:04.012Z,28.20
2022-07-28T14:54:33.959Z,28.30
2022-07-28T14:57:00.954Z,28.40
2022-07-28T14:59:27.727Z,28.70
2022-07-28T15:01:54.744Z,28.40
2022-07-28T15:04:21.983Z,28.40
2022-07-28T15:06:48.806Z,28.20
2022-07-28T15:09:15.534Z,28.50
2022-07-28T15:11:50.678Z,28.80
2022-07-28T15:14:21.255Z,28.30
2022-07-28T15:16:50.642Z,28.30
2022-07-28T15:19:21.690Z,28.30
2022-07-28T15:21:51.059Z,28.40
2022-07-28T15:24:19.112Z,28.40
2022-07-28T15:29:35.592Z,28.20
2022-07-28T15:32:13.070Z,28.20
2022-07-28T15:34:42.032Z,28.10
2022-07-28T15:37:20.759Z,28.00
2022-07-28T15:39:47.840Z,28.00
2022-07-28T15:42:15.091Z,27.90
2022-07-28T15:44:44.575Z,27.90
2022-07-28T15:47:14.463Z,27.90
2022-07-28T15:49:41.877Z,27.90
2022-07-28T15:52:14.940Z,27.90
2022-07-28T15:54:47.980Z,27.90
2022-07-28T15:57:14.870Z,28.00
2022-07-28T15:59:49.198Z,28.30
2022-07-28T16:02:23.679Z,27.90
2022-07-28T16:04:53.621Z,28.00
2022-07-28T16:07:23.920Z,27.90
2022-07-28T16:09:55.551Z,27.90
2022-07-28T16:12:24.811Z,27.90
2022-07-28T16:14:55.527Z,27.90
2022-07-28T16:17:23.287Z,27.90
2022-07-28T16:19:51.307Z,27.90
2022-07-28T16:22:21.043Z,27.60
2022-07-28T16:24:48.060Z,27.80
2022-07-28T16:27:15.109Z,27.90
2022-07-28T16:29:44.033Z,27.70
2022-07-28T16:32:18.183Z,28.00
2022-07-28T16:34:47.405Z,27.90
2022-07-28T16:37:19.038Z,27.60
2022-07-28T16:39:54.328Z,27.80
2022-07-28T16:42:21.196Z,27.50
2022-07-28T16:44:48.190Z,27.40
2022-07-28T16:47:18.138Z,27.40
2022-07-28T16:49:46.292Z,27.30
2022-07-28T16:52:14.069Z,27.30
2022-07-28T16:54:45.777Z,27.30
2022-07-28T16:57:16.929Z,27.20
2022-07-28T17:00:04.649Z,27.20
2022-07-28T17:02:33.226Z,27.30
2022-07-28T17:05:06.105Z,27.10
2022-07-28T17:07:46.637Z,27.00
2022-07-28T17:10:20.613Z,27.10
2022-07-28T17:12:56.280Z,27.00
2022-07-28T17:15:25.578Z,27.00
2022-07-28T17:17:53.366Z,27.00
2022-07-28T17:20:21.140Z,27.00
2022-07-28T17:22:48.773Z,26.90
2022-07-28T17:25:45.676Z,26.90
2022-07-28T17:28:07.401Z,26.90
2022-07-28T17:30:38.073Z,26.80
2022-07-28T17:33:08.794Z,26.80
2022-07-28T17:35:40.978Z,26.70
2022-07-28T17:38:10.767Z,26.70
2022-07-28T17:46:16.514Z,27.00
2022-07-28T17:48:49.588Z,26.30
2022-07-28T17:54:05.833Z,26.50
2022-07-28T17:56:44.270Z,26.40
2022-07-28T17:59:16.330Z,26.30
2022-07-28T18:01:51.418Z,26.30
2022-07-28T18:04:18.639Z,26.20
2022-07-28T18:06:45.970Z,26.00
2022-07-28T18:09:13.224Z,26.10
2022-07-28T18:11:56.808Z,26.40
2022-07-28T18:17:21.095Z,26.00
2022-07-28T18:19:52.028Z,25.80
2022-07-28T18:22:18.910Z,25.40
2022-07-28T18:25:08.409Z,25.70
2022-07-28T18:27:36.304Z,25.70
2022-07-28T18:30:34.278Z,25.60
2022-07-28T18:33:04.259Z,25.60
2022-07-28T18:35:34.843Z,25.50
2022-07-28T18:40:54.358Z,25.20
2022-07-28T18:43:28.741Z,25.30
2022-07-28T18:46:28.082Z,25.40
2022-07-28T18:49:13.560Z,25.40
2022-07-28T18:51:46.030Z,25.30
2022-07-28T18:54:27.106Z,25.30
2022-07-28T18:56:57.276Z,25.50
2022-07-28T18:59:31.492Z,25.30
2022-07-28T19:02:10.738Z,25.60
2022-07-28T19:04:41.748Z,25.20
2022-07-28T19:07:10.191Z,25.20
2022-07-28T19:09:48.868Z,25.10
2022-07-28T19:12:22.194Z,25.10
2022-07-28T19:14:51.978Z,25.00
2022-07-28T19:17:26.685Z,24.60
2022-07-28T19:19:56.905Z,24.90
2022-07-28T19:22:27.348Z,24.90
2022-07-28T19:25:03.657Z,25.20
2022-07-28T19:27:36.280Z,24.70
2022-07-28T19:30:07.886Z,24.60
2022-07-28T19:32:38.158Z,24.60
2022-07-28T19:35:07.576Z,24.50
2022-07-28T19:37:41.898Z,24.40
2022-07-28T19:40:10.594Z,23.80
2022-07-28T19:42:40.635Z,24.30
2022-07-28T19:45:11.027Z,24.30
2022-07-28T19:47:49.800Z,24.10
2022-07-28T19:50:44.093Z,24.00
2022-07-28T19:54:22.884Z,24.10
2022-07-28T19:56:48.706Z,23.80
2022-07-28T19:59:16.765Z,23.80
2022-07-28T20:01:47.001Z,23.50
2022-07-28T20:04:18.701Z,24.10
2022-07-28T20:06:45.923Z,23.70
2022-07-28T20:09:22.748Z,23.70
2022-07-28T20:11:56.348Z,23.60
2022-07-28T20:14:23.840Z,23.60
2022-07-28T20:16:51.274Z,23.60
2022-07-28T20:19:20.242Z,24.00
2022-07-28T20:21:48.493Z,23.50
2022-07-28T20:24:16.001Z,23.40
2022-07-28T20:26:43.611Z,23.80
2022-07-28T20:29:12.019Z,23.60
2022-07-28T20:31:39.221Z,23.20
2022-07-28T20:34:13.087Z,23.50
2022-07-28T20:36:40.435Z,23.00
2022-07-28T20:39:34.737Z,23.00
2022-07-28T20:41:55.192Z,23.80
2022-07-28T20:44:29.978Z,23.30
2022-07-28T20:47:04.378Z,23.40
2022-07-28T20:49:31.714Z,23.00
2022-07-28T20:51:58.961Z,23.00
2022-07-28T20:54:26.955Z,23.10
2022-07-28T20:56:54.006Z,23.30
2022-07-28T20:59:21.057Z,23.20
2022-07-28T21:01:52.036Z,22.70
2022-07-28T21:04:21.685Z,23.20
2022-07-28T21:06:55.273Z,22.70
2022-07-28T21:09:35.786Z,22.60
2022-07-28T21:12:05.654Z,22.60
2022-07-28T21:14:32.897Z,22.50
2022-07-28T21:17:04.145Z,22.60
2022-07-28T21:19:31.315Z,22.40
2022-07-28T21:22:00.197Z,23.00
2022-07-28T21:24:27.247Z,22.90
2022-07-28T21:26:54.243Z,22.40
2022-07-28T21:32:03.749Z,22.30
2022-07-28T21:34:34.385Z,22.20
2022-07-28T21:37:05.454Z,22.30
2022-07-28T21:39:38.068Z,22.70
2022-07-28T21:42:08.080Z,22.20
2022-07-28T21:44:36.621Z,22.30
2022-07-28T21:47:07.150Z,22.20
2022-07-28T21:49:40.046Z,22.50
2022-07-28T21:52:14.649Z,22.20
2022-07-28T21:57:46.533Z,22.40
2022-07-28T22:00:13.981Z,22.50
2022-07-28T22:02:43.075Z,22.20
2022-07-28T22:05:10.245Z,22.20
2022-07-28T22:07:37.198Z,22.80
2022-07-28T22:10:05.215Z,22.10
2022-07-28T22:12:32.181Z,22.20
2022-07-28T22:14:59.027Z,22.10
2022-07-28T22:17:26.082Z,22.20
2022-07-28T22:19:53.061Z,22.80
2022-07-28T22:22:20.232Z,22.20
2022-07-28T22:24:47.121Z,22.20
2022-07-28T22:27:13.977Z,22.20
2022-07-28T22:29:45.391Z,21.80
2022-07-28T22:32:19.048Z,22.10
2022-07-28T22:34:55.648Z,22.40
2022-07-28T22:37:22.424Z,22.20
2022-07-28T22:39:49.214Z,22.10
2022-07-28T22:42:16.427Z,22.10
2022-07-28T22:44:43.275Z,22.30
2022-07-28T22:47:10.151Z,21.60
2022-07-28T22:49:37.231Z,22.40
2022-07-28T22:52:04.340Z,22.40
2022-07-28T22:54:31.133Z,21.90
2022-07-28T22:56:57.954Z,21.60
2022-07-28T22:59:24.871Z,21.80
2022-07-28T23:01:52.047Z,21.40
2022-07-28T23:04:19.098Z,21.80
2022-07-28T23:06:49.237Z,22.20
2022-07-28T23:09:16.060Z,22.30
2022-07-28T23:11:42.889Z,22.00
2022-07-28T23:14:23.022Z,21.80
2022-07-28T23:16:50.020Z,21.80
2022-07-28T23:19:17.697Z,21.80
2022-07-28T23:21:44.634Z,21.70
2022-07-28T23:24:11.729Z,21.80
2022-07-28T23:26:38.618Z,22.00
2022-07-28T23:29:08.531Z,21.40
2022-07-28T23:31:35.564Z,21.40
2022-07-28T23:34:02.445Z,22.20
2022-07-28T23:36:29.455Z,21.70
2022-07-28T23:38:57.626Z,22.10
2022-07-28T23:41:24.943Z,21.70
2022-07-28T23:43:51.981Z,22.30
2022-07-28T23:46:18.869Z,21.70
2022-07-28T23:48:45.782Z,21.60
2022-07-28T23:51:14.112Z,21.70
2022-07-28T23:53:43.924Z,21.70
2022-07-28T23:56:10.791Z,21.60
2022-07-28T23:58:37.708Z,22.10
